createdAt,value
2018-05-29T00:01:28.778Z,97.90
2018-05-29T00:04:26.728Z,97.90
2018-05-29T00:07:24.342Z,97.70
2018-05-29T00:10:22.536Z,97.70
2018-05-29T00:13:20.296Z,97.80
2018-05-29T00:16:18.080Z,97.70
2018-05-29T00:19:16.282Z,97.70
2018-05-29T00:22:14.945Z,97.70
2018-05-29T00:25:13.606Z,98.10
2018-05-29T00:28:10.816Z,98.00
2018-05-29T00:31:07.922Z,98.00
2018-05-29T00:34:05.000Z,97.90
2018-05-29T00:37:02.892Z,98.10
2018-05-29T00:40:00.980Z,98.00
2018-05-29T00:42:58.042Z,98.10
2018-05-29T00:45:55.230Z,98.50
2018-05-29T00:48:52.282Z,98.80
2018-05-29T00:51:50.048Z,99.20
2018-05-29T00:54:47.052Z,99.20
2018-05-29T00:57:44.205Z,99.00
2018-05-29T01:00:41.889Z,99.00
2018-05-29T01:03:39.744Z,98.80
2018-05-29T01:06:45.644Z,99.10
2018-05-29T01:09:42.713Z,99.00
2018-05-29T01:12:40.430Z,98.90
2018-05-29T01:15:37.492Z,98.90
2018-05-29T01:18:35.239Z,98.70
2018-05-29T01:21:32.393Z,98.90
2018-05-29T01:24:30.328Z,99.20
2018-05-29T01:27:28.259Z,99.10
2018-05-29T01:30:26.252Z,99.10
2018-05-29T01:33:24.261Z,99.60
2018-05-29T01:36:22.199Z,99.50
2018-05-29T01:39:19.255Z,99.60
2018-05-29T01:42:16.960Z,99.90
2018-05-29T01:45:14.043Z,99.90
2018-05-29T01:48:11.940Z,99.10
2018-05-29T01:51:10.355Z,98.80
2018-05-29T01:54:07.500Z,98.80
2018-05-29T01:57:05.245Z,99.10
2018-05-29T02:00:03.287Z,99.50
2018-05-29T02:03:00.984Z,99.50
2018-05-29T02:05:58.182Z,99.90
2018-05-29T02:08:57.279Z,99.90
2018-05-29T02:11:55.098Z,99.90
2018-05-29T02:14:52.135Z,99.90
2018-05-29T02:17:49.984Z,99.90
2018-05-29T02:23:55.744Z,99.90
2018-05-29T02:26:53.477Z,99.90
2018-05-29T02:29:51.405Z,99.90
2018-05-29T02:32:48.501Z,99.90
2018-05-29T02:35:46.436Z,99.90
2018-05-29T02:38:43.977Z,99.90
2018-05-29T02:41:41.022Z,99.90
2018-05-29T02:44:38.833Z,99.90
2018-05-29T02:47:35.855Z,99.90
2018-05-29T02:50:34.064Z,99.90
2018-05-29T02:53:31.042Z,99.90
2018-05-29T02:56:28.971Z,99.90
2018-05-29T02:59:26.746Z,99.90
2018-05-29T03:02:24.678Z,99.90
2018-05-29T03:05:21.800Z,99.90
2018-05-29T03:08:19.770Z,99.90
2018-05-29T03:11:17.585Z,99.90
2018-05-29T03:14:15.376Z,99.90
2018-05-29T03:17:12.568Z,99.90
2018-05-29T03:20:10.519Z,99.90
2018-05-29T03:23:08.290Z,99.90
2018-05-29T03:26:05.264Z,99.90
2018-05-29T03:29:02.410Z,99.90
2018-05-29T03:32:00.544Z,99.90
2018-05-29T03:34:58.327Z,99.90
2018-05-29T03:37:56.324Z,99.90
2018-05-29T03:40:54.078Z,99.90
2018-05-29T03:43:51.808Z,99.70
2018-05-29T03:46:49.808Z,99.50
2018-05-29T03:49:47.741Z,99.50
2018-05-29T03:52:45.460Z,99.60
2018-05-29T03:55:43.431Z,99.30
2018-05-29T03:58:41.444Z,99.00
2018-05-29T04:01:39.472Z,99.00
2018-05-29T04:04:37.211Z,98.90
2018-05-29T04:07:35.871Z,98.20
2018-05-29T04:10:33.900Z,98.20
2018-05-29T04:13:31.940Z,97.60
2018-05-29T04:16:29.773Z,97.60
2018-05-29T04:19:27.729Z,97.10
2018-05-29T04:22:25.626Z,97.40
2018-05-29T04:25:23.523Z,97.20
2018-05-29T04:28:21.428Z,96.10
2018-05-29T04:31:18.501Z,96.00
2018-05-29T04:34:16.664Z,96.50
2018-05-29T04:37:14.784Z,96.90
2018-05-29T04:40:12.847Z,96.90
2018-05-29T04:43:10.072Z,97.10
2018-05-29T04:46:07.834Z,96.90
2018-05-29T04:49:05.218Z,96.80
2018-05-29T04:52:02.653Z,95.60
2018-05-29T04:55:00.271Z,95.00
2018-05-29T04:57:58.373Z,94.90
2018-05-29T05:00:56.398Z,95.10
2018-05-29T05:03:53.532Z,95.10
2018-05-29T05:06:50.763Z,95.20
2018-05-29T05:09:47.934Z,95.10
2018-05-29T05:12:46.745Z,95.00
2018-05-29T05:15:43.943Z,94.90
2018-05-29T05:18:41.100Z,94.60
2018-05-29T05:21:40.129Z,94.10
2018-05-29T05:24:37.928Z,94.00
2018-05-29T05:27:35.125Z,94.00
2018-05-29T05:30:33.295Z,93.40
2018-05-29T05:33:30.458Z,93.30
2018-05-29T05:36:28.269Z,92.30
2018-05-29T05:39:25.961Z,92.00
2018-05-29T05:42:23.840Z,92.10
2018-05-29T05:45:23.787Z,90.40
2018-05-29T05:48:20.882Z,85.20
2018-05-29T05:51:18.827Z,83.60
2018-05-29T05:54:16.969Z,79.00
2018-05-29T05:57:13.938Z,78.80
2018-05-29T06:00:13.242Z,77.80
2018-05-29T06:03:10.714Z,77.80
2018-05-29T06:06:08.781Z,74.40
2018-05-29T06:09:06.707Z,75.00
2018-05-29T06:12:04.746Z,75.00
2018-05-29T06:15:03.452Z,73.70
2018-05-29T06:18:01.396Z,72.70
2018-05-29T06:20:59.179Z,70.50
2018-05-29T06:23:57.224Z,71.60
2018-05-29T06:26:54.862Z,71.50
2018-05-29T06:29:52.764Z,70.20
2018-05-29T06:32:50.653Z,68.60
2018-05-29T06:35:48.543Z,69.10
2018-05-29T06:38:45.725Z,66.50
2018-05-29T06:41:44.722Z,62.80
2018-05-29T06:44:41.906Z,61.10
2018-05-29T06:47:39.161Z,59.60
2018-05-29T06:50:36.803Z,60.50
2018-05-29T06:53:34.494Z,57.60
2018-05-29T06:56:33.253Z,54.00
2018-05-29T06:59:33.346Z,50.90
2018-05-29T07:02:31.145Z,49.00
2018-05-29T07:05:28.255Z,48.90
2018-05-29T07:08:26.166Z,46.40
2018-05-29T07:11:23.177Z,44.90
2018-05-29T07:14:21.407Z,42.40
2018-05-29T07:17:18.367Z,42.30
2018-05-29T07:20:15.619Z,41.70
2018-05-29T07:23:13.421Z,41.70
2018-05-29T07:26:10.432Z,40.80
2018-05-29T07:29:08.370Z,39.10
2018-05-29T07:32:06.400Z,40.80
2018-05-29T07:35:04.328Z,38.70
2018-05-29T07:38:02.302Z,34.60
2018-05-29T07:41:00.437Z,34.40
2018-05-29T07:43:58.312Z,35.80
2018-05-29T07:46:56.188Z,34.30
2018-05-29T07:49:53.982Z,31.80
2018-05-29T07:52:52.661Z,30.50
2018-05-29T07:55:50.467Z,30.40
2018-05-29T07:58:48.435Z,29.40
2018-05-29T08:01:46.250Z,29.80
2018-05-29T08:04:44.075Z,29.30
2018-05-29T08:07:41.660Z,28.90
2018-05-29T08:10:39.540Z,28.50
2018-05-29T08:13:37.444Z,28.10
2018-05-29T08:16:35.308Z,27.50
2018-05-29T08:19:32.283Z,27.40
2018-05-29T08:22:29.427Z,29.00
2018-05-29T08:25:27.258Z,29.00
2018-05-29T08:28:26.131Z,29.00
2018-05-29T08:31:23.649Z,28.50
2018-05-29T08:34:21.503Z,29.00
2018-05-29T08:37:19.527Z,28.10
2018-05-29T08:40:17.216Z,28.00
2018-05-29T08:43:14.803Z,28.00
2018-05-29T08:46:12.745Z,28.40
2018-05-29T08:49:10.692Z,28.90
2018-05-29T08:52:07.982Z,28.60
2018-05-29T08:55:06.003Z,27.70
2018-05-29T08:58:03.446Z,27.60
2018-05-29T09:01:01.229Z,27.70
2018-05-29T09:03:58.418Z,27.30
2018-05-29T09:06:56.232Z,27.50
2018-05-29T09:09:54.015Z,27.20
2018-05-29T09:12:52.042Z,27.20
2018-05-29T09:15:49.942Z,27.20
2018-05-29T09:18:47.633Z,27.00
2018-05-29T09:21:45.454Z,26.60
2018-05-29T09:24:43.326Z,27.40
2018-05-29T09:27:41.085Z,27.90
2018-05-29T09:30:38.810Z,28.60
2018-05-29T09:33:36.595Z,28.40
2018-05-29T09:36:33.567Z,28.70
2018-05-29T09:39:31.431Z,28.20
2018-05-29T09:42:28.620Z,28.90
2018-05-29T09:45:26.444Z,29.40
2018-05-29T09:48:24.483Z,30.00
2018-05-29T09:51:22.329Z,30.00
2018-05-29T09:54:20.091Z,30.70
2018-05-29T09:57:17.848Z,30.70
2018-05-29T10:00:15.718Z,30.70
2018-05-29T10:03:14.443Z,31.50
2018-05-29T10:06:11.444Z,31.50
2018-05-29T10:09:08.420Z,31.30
2018-05-29T10:12:05.790Z,32.10
2018-05-29T10:15:02.903Z,33.00
2018-05-29T10:18:01.142Z,33.50
2018-05-29T10:20:59.164Z,32.80
2018-05-29T10:23:56.153Z,33.30
2018-05-29T10:26:53.490Z,33.30
2018-05-29T10:29:50.847Z,33.60
2018-05-29T10:32:47.993Z,33.30
2018-05-29T10:35:45.008Z,33.40
2018-05-29T10:38:42.087Z,33.00
2018-05-29T10:41:39.181Z,33.40
2018-05-29T10:44:37.227Z,33.60
2018-05-29T10:47:34.306Z,33.70
2018-05-29T10:50:32.443Z,34.60
2018-05-29T10:53:30.530Z,34.60
2018-05-29T10:56:28.377Z,35.50
2018-05-29T10:59:26.132Z,35.00
2018-05-29T11:02:24.084Z,34.90
2018-05-29T11:05:22.874Z,35.70
2018-05-29T11:08:20.256Z,35.60
2018-05-29T11:11:18.309Z,36.30
2018-05-29T11:14:15.359Z,36.20
2018-05-29T11:17:12.502Z,35.20
2018-05-29T11:20:10.384Z,35.60
2018-05-29T11:23:08.175Z,34.70
2018-05-29T11:26:05.969Z,34.90
2018-05-29T11:29:02.984Z,35.60
2018-05-29T11:32:00.166Z,34.80
2018-05-29T11:34:57.913Z,35.60
2018-05-29T11:37:55.778Z,35.70
2018-05-29T11:40:52.996Z,36.40
2018-05-29T11:43:51.118Z,36.50
2018-05-29T11:46:48.997Z,35.80
2018-05-29T11:49:47.731Z,35.50
2018-05-29T11:52:46.849Z,34.90
2018-05-29T11:55:44.697Z,34.80
2018-05-29T11:58:41.807Z,34.80
2018-05-29T12:01:39.995Z,35.50
2018-05-29T12:04:37.746Z,35.30
2018-05-29T12:07:35.439Z,35.00
2018-05-29T12:10:33.290Z,34.70
2018-05-29T12:13:31.014Z,36.10
2018-05-29T12:16:28.925Z,35.60
2018-05-29T12:19:26.916Z,36.70
2018-05-29T12:22:24.851Z,36.60
2018-05-29T12:25:23.352Z,35.90
2018-05-29T12:28:20.615Z,35.20
2018-05-29T12:31:19.497Z,34.20
2018-05-29T12:34:17.500Z,34.20
2018-05-29T12:37:15.668Z,34.00
2018-05-29T12:40:12.640Z,34.60
2018-05-29T12:43:10.600Z,35.00
2018-05-29T12:46:08.289Z,33.90
2018-05-29T12:49:06.138Z,35.00
2018-05-29T12:52:04.028Z,34.90
2018-05-29T12:55:01.396Z,35.10
2018-05-29T12:57:58.523Z,34.80
2018-05-29T13:00:56.432Z,35.50
2018-05-29T13:03:54.174Z,35.50
2018-05-29T13:06:52.131Z,36.50
2018-05-29T13:09:50.025Z,35.80
2018-05-29T13:12:47.705Z,35.80
2018-05-29T13:15:44.648Z,35.20
2018-05-29T13:18:42.520Z,34.50
2018-05-29T13:21:40.405Z,34.40
2018-05-29T13:24:38.270Z,34.30
2018-05-29T13:27:35.803Z,35.10
2018-05-29T13:30:33.632Z,35.00
2018-05-29T13:33:31.490Z,35.20
2018-05-29T13:36:29.678Z,34.90
2018-05-29T13:39:28.530Z,34.70
2018-05-29T13:42:25.522Z,35.60
2018-05-29T13:45:24.565Z,35.90
2018-05-29T13:48:21.688Z,35.60
2018-05-29T13:51:19.652Z,35.20
2018-05-29T13:54:17.804Z,36.80
2018-05-29T13:57:15.644Z,37.70
2018-05-29T14:00:13.516Z,38.10
2018-05-29T14:03:10.959Z,37.70
2018-05-29T14:06:09.063Z,38.10
2018-05-29T14:09:07.077Z,38.50
2018-05-29T14:12:05.966Z,39.30
2018-05-29T14:15:04.091Z,39.20
2018-05-29T14:18:02.106Z,38.10
2018-05-29T14:20:59.370Z,38.00
2018-05-29T14:23:56.488Z,38.30
2018-05-29T14:26:54.357Z,37.70
2018-05-29T14:29:52.294Z,36.00
2018-05-29T14:32:49.443Z,36.00
2018-05-29T14:35:47.341Z,36.60
2018-05-29T14:38:44.473Z,36.80
2018-05-29T14:41:41.538Z,36.20
2018-05-29T14:44:39.400Z,35.70
2018-05-29T14:47:37.654Z,35.40
2018-05-29T14:50:34.752Z,34.80
2018-05-29T14:53:32.706Z,36.30
2018-05-29T14:56:30.744Z,36.30
2018-05-29T14:59:28.660Z,37.00
2018-05-29T15:02:25.768Z,37.50
2018-05-29T15:05:23.749Z,37.70
2018-05-29T15:08:20.963Z,37.90
2018-05-29T15:11:18.225Z,38.50
2018-05-29T15:14:16.107Z,39.30
2018-05-29T15:17:13.644Z,39.60
2018-05-29T15:20:11.308Z,40.30
2018-05-29T15:23:09.176Z,39.50
2018-05-29T15:26:07.159Z,39.50
2018-05-29T15:29:04.845Z,39.60
2018-05-29T15:32:01.874Z,38.90
2018-05-29T15:35:00.354Z,40.20
2018-05-29T15:37:58.370Z,40.30
2018-05-29T15:40:55.624Z,40.60
2018-05-29T15:43:53.948Z,40.80
2018-05-29T15:46:51.387Z,40.90
2018-05-29T15:49:48.638Z,41.10
2018-05-29T15:52:45.829Z,40.90
2018-05-29T15:55:44.062Z,40.40
2018-05-29T15:58:41.891Z,40.40
2018-05-29T16:01:39.959Z,40.40
2018-05-29T16:04:38.195Z,41.50
2018-05-29T16:07:36.126Z,40.90
2018-05-29T16:10:34.093Z,42.80
2018-05-29T16:13:31.251Z,42.80
2018-05-29T16:16:29.469Z,44.10
2018-05-29T16:19:27.376Z,44.10
2018-05-29T16:22:25.177Z,44.80
2018-05-29T16:25:23.040Z,45.00
2018-05-29T16:28:21.675Z,45.30
2018-05-29T16:31:19.511Z,45.20
2018-05-29T16:34:17.698Z,45.70
2018-05-29T16:37:15.626Z,45.60
2018-05-29T16:40:14.613Z,45.20
2018-05-29T16:43:12.395Z,45.20
2018-05-29T16:46:11.054Z,46.20
2018-05-29T16:49:08.862Z,46.10
2018-05-29T16:52:06.793Z,47.00
2018-05-29T16:55:04.424Z,47.40
2018-05-29T16:58:02.457Z,47.50
2018-05-29T17:01:00.432Z,47.80
2018-05-29T17:03:58.217Z,47.70
2018-05-29T17:06:56.170Z,47.80
2018-05-29T17:09:54.118Z,47.90
2018-05-29T17:12:52.077Z,47.80
2018-05-29T17:15:49.903Z,48.00
2018-05-29T17:18:46.862Z,48.20
2018-05-29T17:21:44.787Z,49.70
2018-05-29T17:24:42.652Z,49.10
2018-05-29T17:27:39.805Z,48.80
2018-05-29T17:30:37.912Z,49.70
2018-05-29T17:33:35.076Z,49.60
2018-05-29T17:36:32.236Z,50.10
2018-05-29T17:39:30.045Z,50.60
2018-05-29T17:42:27.167Z,50.50
2018-05-29T17:45:25.285Z,51.70
2018-05-29T17:48:23.194Z,51.70
2018-05-29T17:51:21.403Z,52.70
2018-05-29T17:54:19.221Z,52.20
2018-05-29T17:57:17.076Z,52.50
2018-05-29T18:00:14.863Z,52.60
2018-05-29T18:03:12.868Z,52.70
2018-05-29T18:06:09.855Z,53.10
2018-05-29T18:09:07.968Z,53.10
2018-05-29T18:12:05.567Z,53.70
2018-05-29T18:15:03.531Z,53.70
2018-05-29T18:18:01.416Z,55.00
2018-05-29T18:20:59.293Z,54.90
2018-05-29T18:23:57.134Z,55.00
2018-05-29T18:26:55.947Z,55.00
2018-05-29T18:29:53.837Z,55.30
2018-05-29T18:32:57.329Z,55.50
2018-05-29T18:35:54.744Z,55.60
2018-05-29T18:38:51.807Z,56.30
2018-05-29T18:41:49.823Z,56.60
2018-05-29T18:44:47.659Z,56.90
2018-05-29T18:47:44.713Z,56.90
2018-05-29T18:50:41.943Z,57.50
2018-05-29T18:53:39.978Z,57.70
2018-05-29T18:56:38.457Z,58.30
2018-05-29T18:59:36.429Z,59.00
2018-05-29T19:02:33.937Z,58.90
2018-05-29T19:05:31.148Z,59.60
2018-05-29T19:08:29.170Z,60.30
2018-05-29T19:11:27.313Z,60.30
2018-05-29T19:14:24.347Z,60.50
2018-05-29T19:17:22.371Z,61.80
2018-05-29T19:20:19.623Z,61.70
2018-05-29T19:23:17.533Z,62.50
2018-05-29T19:26:14.577Z,63.00
2018-05-29T19:29:12.359Z,63.60
2018-05-29T19:32:10.338Z,64.00
2018-05-29T19:35:08.237Z,65.20
2018-05-29T19:38:06.052Z,64.90
2018-05-29T19:41:03.942Z,65.10
2018-05-29T19:44:01.061Z,65.30
2018-05-29T19:47:00.227Z,66.00
2018-05-29T19:49:57.705Z,65.90
2018-05-29T19:52:55.692Z,66.20
2018-05-29T19:55:54.730Z,66.50
2018-05-29T19:58:53.526Z,67.80
2018-05-29T20:01:50.693Z,67.60
2018-05-29T20:04:48.394Z,67.30
2018-05-29T20:07:45.465Z,67.70
2018-05-29T20:10:43.547Z,67.80
2018-05-29T20:13:40.680Z,67.90
2018-05-29T20:16:38.447Z,69.30
2018-05-29T20:19:36.106Z,68.70
2018-05-29T20:22:34.002Z,69.30
2018-05-29T20:25:32.014Z,69.80
2018-05-29T20:28:30.001Z,70.50
2018-05-29T20:31:28.153Z,71.00
2018-05-29T20:34:25.914Z,71.00
2018-05-29T20:37:23.589Z,71.20
2018-05-29T20:40:21.626Z,71.90
2018-05-29T20:43:19.537Z,71.90
2018-05-29T20:46:17.589Z,71.80
2018-05-29T20:49:15.056Z,72.40
2018-05-29T20:52:12.803Z,72.70
2018-05-29T20:55:10.733Z,72.90
2018-05-29T20:58:08.670Z,73.70
2018-05-29T21:01:06.643Z,73.60
2018-05-29T21:04:04.468Z,73.90
2018-05-29T21:07:02.530Z,74.10
2018-05-29T21:10:00.391Z,74.40
2018-05-29T21:12:58.135Z,74.90
2018-05-29T21:15:56.157Z,76.10
2018-05-29T21:18:55.126Z,75.60
2018-05-29T21:21:52.994Z,76.40
2018-05-29T21:24:50.940Z,76.70
2018-05-29T21:27:49.795Z,76.70
2018-05-29T21:30:47.636Z,77.10
2018-05-29T21:33:45.661Z,77.40
2018-05-29T21:36:43.556Z,77.50
2018-05-29T21:39:41.603Z,77.90
2018-05-29T21:42:38.699Z,78.00
2018-05-29T21:45:37.155Z,78.60
2018-05-29T21:48:34.606Z,78.60
2018-05-29T21:51:32.495Z,78.90
2018-05-29T21:54:29.716Z,79.10
2018-05-29T21:57:27.541Z,79.60
2018-05-29T22:00:24.640Z,79.90
2018-05-29T22:03:22.551Z,80.40
2018-05-29T22:06:19.595Z,81.00
2018-05-29T22:09:16.635Z,81.30
2018-05-29T22:12:14.559Z,81.90
2018-05-29T22:15:12.625Z,82.20
2018-05-29T22:18:10.627Z,83.20
2018-05-29T22:21:08.520Z,82.30
2018-05-29T22:24:06.408Z,82.30
2018-05-29T22:27:04.151Z,82.80
2018-05-29T22:30:02.052Z,83.00
2018-05-29T22:33:00.096Z,83.50
2018-05-29T22:35:57.928Z,84.00
2018-05-29T22:38:55.804Z,84.10
2018-05-29T22:41:53.590Z,84.80
2018-05-29T22:44:50.725Z,84.70
2018-05-29T22:47:48.783Z,84.70
2018-05-29T22:50:47.007Z,84.90
2018-05-29T22:53:44.784Z,84.80
2018-05-29T22:56:42.712Z,84.70
2018-05-29T22:59:40.546Z,84.90
2018-05-29T23:02:37.619Z,85.10
2018-05-29T23:05:35.429Z,85.30
2018-05-29T23:08:33.184Z,85.20
2018-05-29T23:11:31.088Z,85.50
2018-05-29T23:14:28.821Z,85.40
2018-05-29T23:17:26.114Z,85.60
2018-05-29T23:20:25.080Z,86.20
2018-05-29T23:23:23.890Z,86.30
2018-05-29T23:26:21.745Z,86.30
2018-05-29T23:29:19.517Z,86.40
2018-05-29T23:32:17.362Z,86.70
2018-05-29T23:35:14.506Z,86.90
2018-05-29T23:38:12.199Z,87.10
2018-05-29T23:41:10.238Z,87.80
2018-05-29T23:44:08.270Z,87.80
2018-05-29T23:47:06.175Z,88.40
2018-05-29T23:50:03.974Z,88.80
2018-05-29T23:53:01.230Z,89.20
2018-05-29T23:55:59.037Z,89.80
2018-05-29T23:58:56.331Z,90.10
